createdAt,value
2024-03-02T00:00:00.148Z, 7.2
2024-03-02T00:02:00.085Z, 7.2
2024-03-02T00:04:00.174Z, 7.1
2024-03-02T00:06:00.123Z, 7.2
2024-03-02T00:08:00.084Z, 7.2
2024-03-02T00:10:00.138Z, 7.3
2024-03-02T00:12:00.116Z, 7.1
2024-03-02T00:14:00.093Z, 7.1
2024-03-02T00:16:00.165Z, 7.2
2024-03-02T00:18:00.189Z, 7.2
2024-03-02T00:20:00.139Z, 6.8
2024-03-02T00:22:00.230Z, 6.3
2024-03-02T00:24:00.112Z, 6.1
2024-03-02T00:26:00.085Z, 6.1
2024-03-02T00:28:00.143Z, 6.2
2024-03-02T00:30:00.157Z, 6.3
2024-03-02T00:32:00.091Z, 6.9
2024-03-02T00:34:00.102Z, 7.2
2024-03-02T00:36:00.139Z, 7.2
2024-03-02T00:38:00.111Z, 7.2
2024-03-02T00:40:00.212Z, 7
2024-03-02T00:42:00.128Z, 6.4
2024-03-02T00:44:00.111Z, 6.6
2024-03-02T00:46:00.087Z, 6.6
2024-03-02T00:48:00.217Z, 6.5
2024-03-02T00:50:00.153Z, 6.7
2024-03-02T00:52:00.178Z, 7.1
2024-03-02T00:54:00.173Z, 7.2
2024-03-02T00:56:00.100Z, 6.7
2024-03-02T00:58:00.105Z, 6.5
2024-03-02T01:00:00.157Z, 6.7
2024-03-02T01:02:00.082Z, 6.9
2024-03-02T01:04:00.144Z, 7
2024-03-02T01:06:00.128Z, 7.1
2024-03-02T01:08:00.103Z, 6.9
2024-03-02T01:10:00.184Z, 6.6
2024-03-02T01:12:00.110Z, 6.2
2024-03-02T01:14:00.112Z, 6
2024-03-02T01:16:00.144Z, 6
2024-03-02T01:18:00.109Z, 6.3
2024-03-02T01:20:00.147Z, 6.4
2024-03-02T01:22:00.138Z, 6.4
2024-03-02T01:24:00.179Z, 6.7
2024-03-02T01:26:00.077Z, 6.9
2024-03-02T01:28:00.133Z, 7
2024-03-02T01:30:00.143Z, 6.8
2024-03-02T01:32:00.103Z, 6.8
2024-03-02T01:34:00.125Z, 6.5
2024-03-02T01:36:00.217Z, 6.3
2024-03-02T01:38:00.090Z, 6.1
2024-03-02T01:40:00.177Z, 6.2
2024-03-02T01:42:00.219Z, 6.2
2024-03-02T01:44:00.091Z, 6.3
2024-03-02T01:46:00.734Z, 6.2
2024-03-02T01:48:00.146Z, 6.2
2024-03-02T01:50:00.155Z, 6
2024-03-02T01:52:00.103Z, 5.9
2024-03-02T01:54:00.122Z, 5.9
2024-03-02T01:56:00.113Z, 5.7
2024-03-02T01:58:00.411Z, 5.7
2024-03-02T02:00:00.163Z, 5.5
2024-03-02T02:02:00.084Z, 5.5
2024-03-02T02:04:00.163Z, 5.6
2024-03-02T02:06:00.142Z, 5.7
2024-03-02T02:08:00.139Z, 5.6
2024-03-02T02:10:00.258Z, 5.7
2024-03-02T02:12:00.124Z, 5.9
2024-03-02T02:14:00.100Z, 6.3
2024-03-02T02:16:00.181Z, 6.3
2024-03-02T02:18:00.633Z, 6.1
2024-03-02T02:20:00.127Z, 5.7
2024-03-02T02:22:00.132Z, 5.9
2024-03-02T02:24:00.121Z, 5.9
2024-03-02T02:26:00.121Z, 5.8
2024-03-02T02:28:00.284Z, 6
2024-03-02T02:30:00.125Z, 5.7
2024-03-02T02:32:00.086Z, 6.1
2024-03-02T02:34:00.132Z, 6.2
2024-03-02T02:36:00.124Z, 6.4
2024-03-02T02:38:00.195Z, 6.5
2024-03-02T02:40:00.211Z, 6.3
2024-03-02T02:42:00.113Z, 6.2
2024-03-02T02:44:00.086Z, 6.5
2024-03-02T02:46:00.618Z, 6.4
2024-03-02T02:48:00.169Z, 6.3
2024-03-02T02:50:00.140Z, 6.4
2024-03-02T02:52:00.197Z, 6.3
2024-03-02T02:54:00.169Z, 6.3
2024-03-02T02:56:00.090Z, 6.6
2024-03-02T02:58:00.204Z, 6.7
2024-03-02T03:00:00.198Z, 6.7
2024-03-02T03:02:00.107Z, 6.8
2024-03-02T03:04:00.140Z, 6.6
2024-03-02T03:06:00.111Z, 6.7
2024-03-02T03:08:00.100Z, 6.7
2024-03-02T03:10:00.274Z, 6.8
2024-03-02T03:12:00.117Z, 6.8
2024-03-02T03:14:00.080Z, 6.7
2024-03-02T03:16:00.236Z, 6.5
2024-03-02T03:18:00.281Z, 5.8
2024-03-02T03:20:00.155Z, 5.6
2024-03-02T03:22:00.138Z, 5.6
2024-03-02T03:24:00.142Z, 5.7
2024-03-02T03:26:00.086Z, 5.8
2024-03-02T03:28:00.154Z, 6.1
2024-03-02T03:30:00.175Z, 6.3
2024-03-02T03:32:00.081Z, 6.6
2024-03-02T03:34:00.210Z, 6.8
2024-03-02T03:36:00.124Z, 6.6
2024-03-02T03:38:00.086Z, 6.4
2024-03-02T03:40:00.215Z, 6.1
2024-03-02T03:42:00.109Z, 5.9
2024-03-02T03:44:00.093Z, 6
2024-03-02T03:46:00.138Z, 6.2
2024-03-02T03:48:00.160Z, 6.4
2024-03-02T03:50:00.143Z, 6.3
2024-03-02T03:52:00.114Z, 6.3
2024-03-02T03:54:00.143Z, 6.1
2024-03-02T03:56:00.128Z, 6.3
2024-03-02T03:58:00.120Z, 6.2
2024-03-02T04:00:00.162Z, 6.4
2024-03-02T04:02:00.093Z, 6.2
2024-03-02T04:04:00.114Z, 6.3
2024-03-02T04:06:00.168Z, 6.2
2024-03-02T04:08:00.100Z, 6.2
2024-03-02T04:10:00.226Z, 6.3
2024-03-02T04:12:00.119Z, 6.3
2024-03-02T04:14:00.136Z, 6.5
2024-03-02T04:16:00.199Z, 6.5
2024-03-02T04:18:00.168Z, 6.6
2024-03-02T04:20:00.141Z, 6.4
2024-03-02T04:22:03.205Z, 6.6
2024-03-02T04:24:00.160Z, 6.8
2024-03-02T04:26:00.140Z, 6.7
2024-03-02T04:28:00.149Z, 6.7
2024-03-02T04:30:00.151Z, 6.8
2024-03-02T04:32:00.130Z, 6.7
2024-03-02T04:34:00.134Z, 6.8
2024-03-02T04:36:00.184Z, 6.8
2024-03-02T04:38:00.098Z, 6.7
2024-03-02T04:40:00.172Z, 6.6
2024-03-02T04:42:00.150Z, 6.9
2024-03-02T04:44:00.080Z, 7
2024-03-02T04:46:00.244Z, 7
2024-03-02T04:48:00.147Z, 7.1
2024-03-02T04:50:00.313Z, 7
2024-03-02T04:52:00.393Z, 6.8
2024-03-02T04:54:00.127Z, 6.6
2024-03-02T04:56:00.097Z, 6.6
2024-03-02T04:58:00.330Z, 6.4
2024-03-02T05:00:00.209Z, 6.4
2024-03-02T05:02:00.177Z, 6.3
2024-03-02T05:04:00.249Z, 6.3
2024-03-02T05:06:00.227Z, 6.4
2024-03-02T05:08:00.102Z, 6.4
2024-03-02T05:10:00.349Z, 6.4
2024-03-02T05:12:00.123Z, 6.6
2024-03-02T05:14:00.098Z, 6.4
2024-03-02T05:16:00.197Z, 6.6
2024-03-02T05:18:00.133Z, 5.8
2024-03-02T05:20:00.207Z, 5.1
2024-03-02T05:22:00.147Z, 4.7
2024-03-02T05:24:00.112Z, 4.7
2024-03-02T05:26:00.112Z, 4.4
2024-03-02T05:28:00.199Z, 4.6
2024-03-02T05:30:00.179Z, 4.7
2024-03-02T05:32:00.100Z, 5.1
2024-03-02T05:34:00.136Z, 4.9
2024-03-02T05:36:00.127Z, 5.4
2024-03-02T05:38:00.080Z, 5.4
2024-03-02T05:40:00.207Z, 5.6
2024-03-02T05:42:00.167Z, 4.5
2024-03-02T05:44:00.096Z, 4.2
2024-03-02T05:46:00.216Z, 4.2
2024-03-02T05:48:00.120Z, 4.4
2024-03-02T05:50:00.174Z, 4.4
2024-03-02T05:52:00.150Z, 4.9
2024-03-02T05:54:00.151Z, 4.8
2024-03-02T05:56:02.692Z, 4.7
2024-03-02T05:58:00.220Z, 4.8
2024-03-02T06:00:00.187Z, 5
2024-03-02T06:02:00.102Z, 5.2
2024-03-02T06:04:00.245Z, 5.3
2024-03-02T06:06:00.157Z, 5.2
2024-03-02T06:08:00.098Z, 5.1
2024-03-02T06:10:00.235Z, 4.6
2024-03-02T06:12:00.627Z, 4.3
2024-03-02T06:14:00.079Z, 4.3
2024-03-02T06:16:00.138Z, 4.8
2024-03-02T06:18:00.142Z, 5.3
2024-03-02T06:20:00.119Z, 5.5
2024-03-02T06:22:00.148Z, 5.9
2024-03-02T06:24:00.123Z, 6.1
2024-03-02T06:26:00.145Z, 6.1
2024-03-02T06:28:00.228Z, 6
2024-03-02T06:30:00.205Z, 5.8
2024-03-02T06:32:00.085Z, 6.2
2024-03-02T06:34:00.134Z, 6.6
2024-03-02T06:36:00.110Z, 6.8
2024-03-02T06:38:00.129Z, 6.9
2024-03-02T06:40:00.215Z, 7.3
2024-03-02T06:42:00.179Z, 7.4
2024-03-02T06:44:00.092Z, 7.4
2024-03-02T06:46:00.157Z, 7.2
2024-03-02T06:48:00.131Z, 7.4
2024-03-02T06:50:00.123Z, 7.8
2024-03-02T06:52:00.126Z, 7.1
2024-03-02T06:54:00.114Z, 7
2024-03-02T06:56:00.099Z, 6.5
2024-03-02T06:58:00.194Z, 6.5
2024-03-02T07:00:00.386Z, 6.6
2024-03-02T07:02:00.114Z, 6.9
2024-03-02T07:04:00.146Z, 7.3
2024-03-02T07:06:00.109Z, 7.5
2024-03-02T07:08:00.087Z, 7.8
2024-03-02T07:10:00.224Z, 8
2024-03-02T07:12:05.100Z, 8.2
2024-03-02T07:14:00.089Z, 7.2
2024-03-02T07:16:00.167Z, 7.4
2024-03-02T07:18:00.091Z, 7.6
2024-03-02T07:20:00.464Z, 7.8
2024-03-02T07:22:00.189Z, 8.2
2024-03-02T07:24:00.137Z, 8.6
2024-03-02T07:28:00.125Z, 8.8
2024-03-02T07:30:00.191Z, 8.7
2024-03-02T07:32:00.085Z, 8
2024-03-02T07:34:00.200Z, 7
2024-03-02T07:36:01.983Z, 6.8
2024-03-02T07:38:00.109Z, 6.9
2024-03-02T07:40:00.284Z, 7.4
2024-03-02T07:42:00.332Z, 7.6
2024-03-02T07:44:00.216Z, 7.5
2024-03-02T07:46:00.098Z, 7.2
2024-03-02T07:48:00.283Z, 7.1
2024-03-02T07:50:00.320Z, 7.1
2024-03-02T07:52:00.206Z, 7.4
2024-03-02T07:54:00.315Z, 7.8
2024-03-02T07:56:00.196Z, 7.7
2024-03-02T07:58:00.117Z, 7.4
2024-03-02T08:00:00.132Z, 7.4
2024-03-02T08:02:00.198Z, 7.3
2024-03-02T08:04:00.129Z, 7.2
2024-03-02T08:06:00.383Z, 7.2
2024-03-02T08:08:00.097Z, 7.3
2024-03-02T08:10:00.242Z, 7.1
2024-03-02T08:12:00.113Z, 7.1
2024-03-02T08:14:00.590Z, 7.2
2024-03-02T08:16:00.174Z, 7.6
2024-03-02T08:18:00.213Z, 8.1
2024-03-02T08:20:00.113Z, 8.5
2024-03-02T08:22:00.212Z, 9.1
2024-03-02T08:24:00.154Z, 9.5
2024-03-02T08:26:00.097Z, 9.9
2024-03-02T08:28:00.116Z, 10
2024-03-02T08:30:00.221Z, 9.7
2024-03-02T08:32:00.082Z, 9.8
2024-03-02T08:34:00.241Z, 9.8
2024-03-02T08:36:00.118Z, 9.7
2024-03-02T08:38:00.084Z, 9.5
2024-03-02T08:40:00.231Z, 9.6
2024-03-02T08:42:00.119Z, 9.9
2024-03-02T08:44:00.098Z, 9.8
2024-03-02T08:46:00.169Z, 9.8
2024-03-02T08:48:00.157Z, 9.7
2024-03-02T08:50:01.901Z, 9.6
2024-03-02T08:52:00.131Z, 10
2024-03-02T08:54:00.123Z, 9.9
2024-03-02T08:56:02.480Z, 10.3
2024-03-02T08:58:00.145Z, 10.4
2024-03-02T09:00:00.148Z, 10.4
2024-03-02T09:02:00.126Z, 10.1
2024-03-02T09:04:00.215Z, 10.3
2024-03-02T09:06:00.118Z, 10.2
2024-03-02T09:08:00.090Z, 10.3
2024-03-02T09:10:00.296Z, 9.9
2024-03-02T09:12:00.139Z, 9.9
2024-03-02T09:14:00.107Z, 9.6
2024-03-02T09:16:00.207Z, 9.7
2024-03-02T09:18:00.200Z, 9.6
2024-03-02T09:20:00.142Z, 9.6
2024-03-02T09:22:00.403Z, 9.6
2024-03-02T09:24:00.114Z, 9.6
2024-03-02T09:26:00.102Z, 9.4
2024-03-02T09:28:00.191Z, 9.3
2024-03-02T09:30:00.198Z, 9.3
2024-03-02T09:32:00.091Z, 9.3
2024-03-02T09:34:00.178Z, 9.4
2024-03-02T09:36:00.106Z, 9.7
2024-03-02T09:38:00.092Z, 9.7
2024-03-02T09:40:00.216Z, 9.9
2024-03-02T09:42:00.113Z, 10
2024-03-02T09:44:00.100Z, 10.1
2024-03-02T09:46:00.157Z, 10.1
2024-03-02T09:48:00.114Z, 10.2
2024-03-02T09:50:00.130Z, 10.3
2024-03-02T09:52:00.329Z, 10.2
2024-03-02T09:54:09.378Z, 10.3
2024-03-02T09:56:00.125Z, 10.3
2024-03-02T09:58:00.137Z, 10.4
2024-03-02T10:00:00.173Z, 10.3
2024-03-02T10:02:00.102Z, 10.3
2024-03-02T10:04:00.185Z, 10.3
2024-03-02T10:06:00.171Z, 10.6
2024-03-02T10:08:00.093Z, 10.7
2024-03-02T10:10:00.190Z, 10.6
2024-03-02T10:12:00.103Z, 10.9
2024-03-02T10:14:00.101Z, 10.9
2024-03-02T10:16:00.129Z, 11
2024-03-02T10:18:00.167Z, 11.3
2024-03-02T10:20:00.120Z, 11.4
2024-03-02T10:22:02.123Z, 11.7
2024-03-02T10:24:00.110Z, 11.7
2024-03-02T10:26:00.199Z, 11.6
2024-03-02T10:28:00.233Z, 11.6
2024-03-02T10:30:00.150Z, 11.7
2024-03-02T10:32:00.099Z, 11.9
2024-03-02T10:34:00.157Z, 12
2024-03-02T10:36:00.157Z, 11.7
2024-03-02T10:38:00.093Z, 11.7
2024-03-02T10:40:00.242Z, 11.9
2024-03-02T10:42:00.150Z, 11.5
2024-03-02T10:44:00.133Z, 11.7
2024-03-02T10:46:00.195Z, 12
2024-03-02T10:48:00.143Z, 12.2
2024-03-02T10:50:00.147Z, 12.3
2024-03-02T10:52:00.288Z, 12.3
2024-03-02T10:54:00.129Z, 12.5
2024-03-02T10:56:02.141Z, 12.6
2024-03-02T10:58:00.203Z, 12.6
2024-03-02T11:00:00.151Z, 12.5
2024-03-02T11:02:02.523Z, 12.2
2024-03-02T11:04:00.274Z, 11.9
2024-03-02T11:06:00.120Z, 11.8
2024-03-02T11:08:00.701Z, 11.7
2024-03-02T11:10:00.437Z, 11.8
2024-03-02T11:12:00.116Z, 11.7
2024-03-02T11:14:00.118Z, 11.7
2024-03-02T11:16:00.109Z, 11.7
2024-03-02T11:18:00.175Z, 11.9
2024-03-02T11:20:00.131Z, 11.9
2024-03-02T11:22:00.378Z, 11.8
2024-03-02T11:24:00.115Z, 11.6
2024-03-02T11:26:00.102Z, 11.6
2024-03-02T11:28:00.196Z, 11.4
2024-03-02T11:30:00.311Z, 11.8
2024-03-02T11:32:00.095Z, 11.8
2024-03-02T11:34:00.156Z, 12.1
2024-03-02T11:36:00.125Z, 12
2024-03-02T11:38:00.094Z, 12.1
2024-03-02T11:40:00.201Z, 12.5
2024-03-02T11:42:00.365Z, 12.4
2024-03-02T11:44:00.089Z, 12.5
2024-03-02T11:46:00.248Z, 12.5
2024-03-02T11:48:00.149Z, 12.7
2024-03-02T11:50:00.121Z, 12.9
2024-03-02T11:52:00.164Z, 12.9
2024-03-02T11:54:00.116Z, 12.7
2024-03-02T11:56:00.088Z, 12.8
2024-03-02T11:58:00.422Z, 12.8
2024-03-02T12:00:00.164Z, 12.8
2024-03-02T12:02:00.191Z, 12.9
2024-03-02T12:04:00.193Z, 12.9
2024-03-02T12:06:00.109Z, 12.8
2024-03-02T12:08:00.133Z, 12.9
2024-03-02T12:10:00.276Z, 13
2024-03-02T12:12:00.148Z, 13.2
2024-03-02T12:14:00.134Z, 13.5
2024-03-02T12:16:00.320Z, 13.4
2024-03-02T12:18:00.154Z, 13.9
2024-03-02T12:20:00.120Z, 13.9
2024-03-02T12:22:00.228Z, 13.5
2024-03-02T12:24:00.106Z, 13.7
2024-03-02T12:26:00.115Z, 13.4
2024-03-02T12:28:00.203Z, 12.7
2024-03-02T12:30:00.139Z, 12.7
2024-03-02T12:32:00.084Z, 13.4
2024-03-02T12:34:00.159Z, 13.9
2024-03-02T12:36:00.192Z, 13.7
2024-03-02T12:38:00.109Z, 13.5
2024-03-02T12:40:00.230Z, 13.4
2024-03-02T12:42:00.106Z, 13.4
2024-03-02T12:44:00.092Z, 13.3
2024-03-02T12:46:00.138Z, 13.5
2024-03-02T12:48:00.176Z, 13.4
2024-03-02T12:50:00.139Z, 13.4
2024-03-02T12:52:00.136Z, 13.4
2024-03-02T12:54:00.112Z, 13.6
2024-03-02T12:56:00.088Z, 13.4
2024-03-02T12:58:00.230Z, 13.4
2024-03-02T13:00:00.185Z, 13
2024-03-02T13:02:00.153Z, 13.3
2024-03-02T13:04:00.117Z, 13.4
2024-03-02T13:06:00.110Z, 13.6
2024-03-02T13:08:00.140Z, 13.5
2024-03-02T13:10:00.194Z, 13.5
2024-03-02T13:12:00.114Z, 13.6
2024-03-02T13:14:00.094Z, 13.7
2024-03-02T13:16:00.162Z, 13.7
2024-03-02T13:18:00.186Z, 13.2
2024-03-02T13:20:00.163Z, 13.2
2024-03-02T13:22:00.207Z, 13.6
2024-03-02T13:24:00.110Z, 13.1
2024-03-02T13:26:00.330Z, 13.8
2024-03-02T13:28:00.108Z, 12.9
2024-03-02T13:30:00.277Z, 13.2
2024-03-02T13:32:00.085Z, 13.2
2024-03-02T13:34:00.128Z, 13.2
2024-03-02T13:36:00.552Z, 13.4
2024-03-02T13:38:00.081Z, 13.1
2024-03-02T13:40:00.288Z, 13.1
2024-03-02T13:42:00.125Z, 13
2024-03-02T13:44:00.081Z, 13.3
2024-03-02T13:46:00.589Z, 13.4
2024-03-02T13:48:00.170Z, 13.3
2024-03-02T13:50:00.121Z, 13.1
2024-03-02T13:52:00.097Z, 13
2024-03-02T13:54:00.120Z, 13.1
2024-03-02T13:56:00.077Z, 13
2024-03-02T13:58:00.167Z, 12.7
2024-03-02T14:00:00.124Z, 13
2024-03-02T14:02:00.103Z, 12.8
2024-03-02T14:04:00.108Z, 13.3
2024-03-02T14:06:00.148Z, 12.8
2024-03-02T14:08:00.104Z, 13.1
2024-03-02T14:10:00.217Z, 12.7
2024-03-02T14:12:00.110Z, 13.1
2024-03-02T14:14:00.082Z, 12.9
2024-03-02T14:16:00.122Z, 12.8
2024-03-02T14:18:00.153Z, 13.2
2024-03-02T14:20:00.167Z, 13.3
2024-03-02T14:22:00.266Z, 13.1
2024-03-02T14:24:00.124Z, 13
2024-03-02T14:26:00.108Z, 13.1
2024-03-02T14:28:23.118Z, 13.2
2024-03-02T14:30:00.237Z, 13.6
2024-03-02T14:32:00.083Z, 13.4
2024-03-02T14:34:00.196Z, 13.6
2024-03-02T14:36:00.135Z, 13.1
2024-03-02T14:38:00.080Z, 13.2
2024-03-02T14:40:00.213Z, 13.6
2024-03-02T14:42:00.128Z, 14
2024-03-02T14:44:00.082Z, 13.6
2024-03-02T14:46:00.137Z, 13
2024-03-02T14:48:00.155Z, 13.4
2024-03-02T14:50:00.138Z, 13.9
2024-03-02T14:52:00.190Z, 13.6
2024-03-02T14:54:00.142Z, 13.5
2024-03-02T14:56:00.154Z, 13.5
2024-03-02T14:58:00.204Z, 13.5
2024-03-02T15:00:00.138Z, 13.5
2024-03-02T15:02:00.130Z, 13.4
2024-03-02T15:04:00.129Z, 13.7
2024-03-02T15:06:00.152Z, 13.5
2024-03-02T15:08:00.090Z, 13.5
2024-03-02T15:10:00.171Z, 13.4
2024-03-02T15:12:00.123Z, 13.5
2024-03-02T15:14:00.086Z, 14
2024-03-02T15:16:00.231Z, 14.2
2024-03-02T15:18:01.711Z, 13.9
2024-03-02T15:20:00.152Z, 13.8
2024-03-02T15:22:00.161Z, 13.8
2024-03-02T15:24:00.118Z, 13.6
2024-03-02T15:26:00.175Z, 13.4
2024-03-02T15:28:00.134Z, 13.4
2024-03-02T15:30:00.187Z, 13.3
2024-03-02T15:32:00.108Z, 13.2
2024-03-02T15:34:00.243Z, 13.1
2024-03-02T15:36:00.098Z, 13.2
2024-03-02T15:38:00.117Z, 13.5
2024-03-02T15:40:00.152Z, 13.4
2024-03-02T15:42:00.106Z, 13.2
2024-03-02T15:44:00.101Z, 13.3
2024-03-02T15:46:00.203Z, 13.1
2024-03-02T15:48:00.167Z, 13
2024-03-02T15:50:00.151Z, 13
2024-03-02T15:52:00.137Z, 13
2024-03-02T15:54:00.105Z, 12.9
2024-03-02T15:56:00.091Z, 12.9
2024-03-02T15:58:00.114Z, 12.8
2024-03-02T16:00:00.174Z, 12.9
2024-03-02T16:02:00.135Z, 13
2024-03-02T16:04:00.113Z, 12.9
2024-03-02T16:06:00.133Z, 12.7
2024-03-02T16:08:00.084Z, 12.8
2024-03-02T16:10:00.203Z, 12.8
2024-03-02T16:12:00.158Z, 12.7
2024-03-02T16:14:00.089Z, 12.7
2024-03-02T16:16:00.136Z, 12.8
2024-03-02T16:18:00.137Z, 12.8
2024-03-02T16:20:00.178Z, 12.9
2024-03-02T16:22:00.187Z, 12.8
2024-03-02T16:24:00.112Z, 12.6
2024-03-02T16:26:00.088Z, 12.6
2024-03-02T16:28:00.133Z, 12.5
2024-03-02T16:30:00.141Z, 12.7
2024-03-02T16:32:00.114Z, 12.5
2024-03-02T16:34:00.172Z, 12.3
2024-03-02T16:36:00.150Z, 12.2
2024-03-02T16:38:00.102Z, 12.1
2024-03-02T16:40:00.145Z, 12.2
2024-03-02T16:42:00.111Z, 12.1
2024-03-02T16:44:00.089Z, 12.2
2024-03-02T16:46:00.105Z, 12.2
2024-03-02T16:48:00.197Z, 12.2
2024-03-02T16:50:00.695Z, 12.2
2024-03-02T16:52:00.303Z, 12.1
2024-03-02T16:54:00.102Z, 12.1
2024-03-02T16:56:00.148Z, 11.9
2024-03-02T16:58:00.155Z, 12
2024-03-02T17:00:00.137Z, 12
2024-03-02T17:02:00.245Z, 11.9
2024-03-02T17:04:00.310Z, 11.9
2024-03-02T17:06:00.143Z, 11.7
2024-03-02T17:08:00.126Z, 11.6
2024-03-02T17:10:00.196Z, 11.5
2024-03-02T17:12:00.158Z, 11.3
2024-03-02T17:14:00.142Z, 11.1
2024-03-02T17:16:00.423Z, 11
2024-03-02T17:18:00.132Z, 10.9
2024-03-02T17:20:00.400Z, 10.8
2024-03-02T17:22:00.115Z, 10.7
2024-03-02T17:24:00.166Z, 10.6
2024-03-02T17:26:00.125Z, 10.5
2024-03-02T17:28:00.112Z, 10.6
2024-03-02T17:30:00.197Z, 10.7
2024-03-02T17:32:00.133Z, 10.6
2024-03-02T17:34:00.138Z, 10.4
2024-03-02T17:36:00.109Z, 10.2
2024-03-02T17:38:00.116Z, 10.3
2024-03-02T17:40:00.165Z, 10.4
2024-03-02T17:42:00.115Z, 10.7
2024-03-02T17:44:00.144Z, 10.7
2024-03-02T17:46:00.128Z, 10.8
2024-03-02T17:48:00.155Z, 10.9
2024-03-02T17:50:00.122Z, 11.1
2024-03-02T17:52:00.114Z, 11.3
2024-03-02T17:54:00.128Z, 11.4
2024-03-02T17:56:00.144Z, 11.7
2024-03-02T17:58:00.278Z, 12
2024-03-02T18:00:00.139Z, 12.1
2024-03-02T18:02:00.148Z, 12.1
2024-03-02T18:04:00.105Z, 11.9
2024-03-02T18:06:00.177Z, 11.8
2024-03-02T18:08:00.086Z, 11.7
2024-03-02T18:10:00.189Z, 11.5
2024-03-02T18:12:00.113Z, 11.2
2024-03-02T18:14:00.076Z, 10.9
2024-03-02T18:16:00.096Z, 10.8
2024-03-02T18:18:00.128Z, 11
2024-03-02T18:20:00.165Z, 11.3
2024-03-02T18:22:00.372Z, 11.1
2024-03-02T18:24:00.303Z, 10.8
2024-03-02T18:26:00.097Z, 10.8
2024-03-02T18:28:00.441Z, 11
2024-03-02T18:30:00.222Z, 11.1
2024-03-02T18:32:00.079Z, 11
2024-03-02T18:34:00.208Z, 11
2024-03-02T18:36:00.285Z, 10.7
2024-03-02T18:38:00.107Z, 10.5
2024-03-02T18:40:00.156Z, 10.4
2024-03-02T18:42:00.144Z, 10.4
2024-03-02T18:44:00.091Z, 10.3
2024-03-02T18:46:00.120Z, 10.4
2024-03-02T18:48:03.146Z, 10.6
2024-03-02T18:50:00.116Z, 10.7
2024-03-02T18:52:00.156Z, 11
2024-03-02T18:54:00.106Z, 11.3
2024-03-02T18:56:00.090Z, 11.4
2024-03-02T18:58:00.162Z, 11.5
2024-03-02T19:00:00.142Z, 11.4
2024-03-02T19:02:00.198Z, 11.4
2024-03-02T19:04:00.107Z, 11.4
2024-03-02T19:06:00.120Z, 11
2024-03-02T19:08:00.081Z, 10.4
2024-03-02T19:10:00.146Z, 10.3
2024-03-02T19:12:00.097Z, 10.2
2024-03-02T19:14:00.082Z, 9.9
2024-03-02T19:16:00.138Z, 9.7
2024-03-02T19:18:00.148Z, 9.6
2024-03-02T19:20:00.140Z, 9.6
2024-03-02T19:22:05.408Z, 9.5
2024-03-02T19:24:00.146Z, 9.2
2024-03-02T19:26:00.078Z, 8.9
2024-03-02T19:28:00.577Z, 8.7
2024-03-02T19:30:00.115Z, 8.7
2024-03-02T19:32:05.173Z, 8.5
2024-03-02T19:34:00.096Z, 8.3
2024-03-02T19:36:00.138Z, 8.2
2024-03-02T19:38:00.081Z, 8.2
2024-03-02T19:40:00.163Z, 8.3
2024-03-02T19:42:00.171Z, 8.5
2024-03-02T19:44:00.103Z, 8.6
2024-03-02T19:46:00.149Z, 8.5
2024-03-02T19:48:00.121Z, 8.4
2024-03-02T19:50:00.192Z, 8.7
2024-03-02T19:52:00.121Z, 8.9
2024-03-02T19:54:00.188Z, 9.1
2024-03-02T19:56:00.083Z, 9.4
2024-03-02T19:58:00.181Z, 9.6
2024-03-02T20:00:00.163Z, 10
2024-03-02T20:02:00.164Z, 10
2024-03-02T20:04:00.108Z, 10.3
2024-03-02T20:06:00.127Z, 10.5
2024-03-02T20:08:00.109Z, 10.7
2024-03-02T20:10:00.248Z, 10.8
2024-03-02T20:12:00.142Z, 10.8
2024-03-02T20:14:00.079Z, 10.8
2024-03-02T20:16:00.132Z, 10.8
2024-03-02T20:18:00.137Z, 10.9
2024-03-02T20:20:00.116Z, 10.9
2024-03-02T20:22:00.170Z, 10.8
2024-03-02T20:24:00.114Z, 10.9
2024-03-02T20:26:00.112Z, 10.8
2024-03-02T20:28:00.151Z, 10.8
2024-03-02T20:30:00.137Z, 10.8
2024-03-02T20:32:00.110Z, 10.9
2024-03-02T20:34:00.127Z, 10.9
2024-03-02T20:36:00.121Z, 10.9
2024-03-02T20:38:00.083Z, 10.9
2024-03-02T20:40:00.563Z, 10.8
2024-03-02T20:42:00.116Z, 10.8
2024-03-02T20:44:00.109Z, 10.8
2024-03-02T20:46:00.143Z, 10.9
2024-03-02T20:48:00.111Z, 10.8
2024-03-02T20:50:00.154Z, 10.8
2024-03-02T20:52:00.136Z, 10.7
2024-03-02T20:54:00.119Z, 10.6
2024-03-02T20:56:00.113Z, 10.6
2024-03-02T20:58:00.118Z, 10.6
2024-03-02T21:00:00.183Z, 10.6
2024-03-02T21:02:00.108Z, 10.6
2024-03-02T21:04:00.115Z, 10.7
2024-03-02T21:06:00.121Z, 10.6
2024-03-02T21:08:00.100Z, 10.5
2024-03-02T21:10:00.200Z, 10.5
2024-03-02T21:12:00.110Z, 10.5
2024-03-02T21:14:00.082Z, 10.5
2024-03-02T21:16:00.160Z, 10.4
2024-03-02T21:18:00.166Z, 10.4
2024-03-02T21:20:00.141Z, 10.3
2024-03-02T21:22:00.128Z, 10.4
2024-03-02T21:24:00.145Z, 10.4
2024-03-02T21:26:00.100Z, 10.4
2024-03-02T21:28:00.152Z, 10.3
2024-03-02T21:30:00.159Z, 10.3
2024-03-02T21:32:00.107Z, 10.3
2024-03-02T21:34:00.113Z, 10.3
2024-03-02T21:36:00.132Z, 10.3
2024-03-02T21:38:00.093Z, 10.2
2024-03-02T21:40:00.142Z, 10.1
2024-03-02T21:42:00.115Z, 10.1
2024-03-02T21:44:00.118Z, 10.1
2024-03-02T21:46:00.144Z, 10.1
2024-03-02T21:48:00.202Z, 10.2
2024-03-02T21:50:00.136Z, 10.1
2024-03-02T21:52:00.120Z, 10.2
2024-03-02T21:54:00.119Z, 10.2
2024-03-02T21:56:00.086Z, 10.3
2024-03-02T21:58:00.114Z, 10.3
2024-03-02T22:00:00.171Z, 10.3
2024-03-02T22:02:00.247Z, 10.3
2024-03-02T22:04:00.117Z, 10.4
2024-03-02T22:06:00.129Z, 10.4
2024-03-02T22:08:00.094Z, 10.5
2024-03-02T22:10:00.225Z, 10.6
2024-03-02T22:12:00.129Z, 10.6
2024-03-02T22:14:00.101Z, 10.6
2024-03-02T22:16:00.109Z, 10.6
2024-03-02T22:18:00.142Z, 10.8
2024-03-02T22:20:00.122Z, 10.9
2024-03-02T22:22:00.149Z, 10.9
2024-03-02T22:24:00.132Z, 11.1
2024-03-02T22:26:00.090Z, 11.4
2024-03-02T22:28:00.201Z, 11.3
2024-03-02T22:30:00.198Z, 11.6
2024-03-02T22:32:00.100Z, 11.5
2024-03-02T22:34:00.161Z, 11.5
2024-03-02T22:36:00.123Z, 11.5
2024-03-02T22:38:00.092Z, 11.4
2024-03-02T22:40:00.169Z, 11.3
2024-03-02T22:42:00.103Z, 11.4
2024-03-02T22:44:00.083Z, 11.4
2024-03-02T22:46:00.115Z, 11.4
2024-03-02T22:48:02.171Z, 11
2024-03-02T22:50:00.167Z, 11
2024-03-02T22:52:00.238Z, 11
2024-03-02T22:54:00.108Z, 10.9
2024-03-02T22:56:00.108Z, 10.8
2024-03-02T22:58:00.152Z, 10.8
2024-03-02T23:00:00.163Z, 10.6
2024-03-02T23:02:00.282Z, 10.4
2024-03-02T23:04:00.128Z, 10.4
2024-03-02T23:06:00.161Z, 10.3
2024-03-02T23:08:00.102Z, 10.1
2024-03-02T23:10:00.147Z, 10
2024-03-02T23:12:00.132Z, 10.2
2024-03-02T23:14:00.113Z, 10.1
2024-03-02T23:16:00.127Z, 10.3
2024-03-02T23:18:00.108Z, 10.4
2024-03-02T23:20:00.153Z, 10.3
2024-03-02T23:22:00.149Z, 10.1
2024-03-02T23:24:00.122Z, 9.9
2024-03-02T23:26:00.097Z, 9.9
2024-03-02T23:28:00.157Z, 10.1
2024-03-02T23:30:00.163Z, 9.7
2024-03-02T23:32:00.100Z, 9.6
2024-03-02T23:34:00.157Z, 9.7
2024-03-02T23:36:00.113Z, 9.8
2024-03-02T23:38:00.104Z, 9.8
2024-03-02T23:40:00.242Z, 9.6
2024-03-02T23:42:00.110Z, 9.6
2024-03-02T23:44:00.099Z, 9.6
2024-03-02T23:46:00.125Z, 9.8
2024-03-02T23:48:00.173Z, 9.9
2024-03-02T23:50:00.165Z, 9.8
2024-03-02T23:52:00.130Z, 9.8
2024-03-02T23:54:00.135Z, 9.8
2024-03-02T23:56:00.168Z, 9.6
2024-03-02T23:58:00.133Z, 9.6
